Time;durP1;ratioP1;P1;durP2;ratioP2;P2;SDS_P1;SDS_P2;PMS_P1;PMS_P2;Temp;Humidity;BMP_temperature;BMP_pressure;BME280_temperature;BME280_humidity;BME280_pressure;Samples;Min_cycle;Max_cycle;Signal;HPM_P1;HPM_P2
2023/10/07 00:02:30;;;;;;;7.50;4.03;;;16.50;62.20;;;;;;5027220;28;20243;-31
2023/10/07 00:05:00;;;;;;;8.90;4.00;;;16.50;62.20;;;;;;5030200;28;20282;-31
2023/10/07 00:07:31;;;;;;;7.47;4.18;;;16.50;62.20;;;;;;5033289;28;20216;-31
2023/10/07 00:10:03;;;;;;;9.43;3.90;;;16.50;62.30;;;;;;5028486;28;20752;-30
2023/10/07 00:12:35;;;;;;;9.13;4.27;;;16.50;62.40;;;;;;5022303;28;20300;-31
2023/10/07 00:15:05;;;;;;;8.77;4.40;;;16.50;62.40;;;;;;5022937;28;20713;-31
2023/10/07 00:17:39;;;;;;;10.43;4.33;;;16.50;62.40;;;;;;5025457;28;20209;-31
2023/10/07 00:20:12;;;;;;;8.50;4.80;;;16.50;62.40;;;;;;5035649;28;20626;-31
2023/10/07 00:22:53;;;;;;;8.50;4.30;;;16.50;62.40;;;;;;5035995;28;20193;-30
2023/10/07 00:25:22;;;;;;;12.83;4.67;;;16.50;62.50;;;;;;5029921;28;20220;-30
2023/10/07 00:27:49;;;;;;;6.10;3.97;;;16.50;62.50;;;;;;5010789;28;20205;-31
2023/10/07 00:30:20;;;;;;;12.30;4.10;;;16.50;62.50;;;;;;5047253;28;20324;-31
2023/10/07 00:32:50;;;;;;;13.80;4.57;;;16.50;62.60;;;;;;5029719;28;20201;-31
2023/10/07 00:35:23;;;;;;;12.93;4.37;;;16.60;62.70;;;;;;5027520;28;20217;-31
2023/10/07 00:37:50;;;;;;;12.50;4.53;;;16.60;62.80;;;;;;5035841;28;20590;-31
2023/10/07 00:40:40;;;;;;;9.37;3.97;;;16.60;62.80;;;;;;5020730;28;20201;-31
2023/10/07 00:43:10;;;;;;;10.02;4.15;;;16.60;62.80;;;;;;5035342;28;20682;-31
2023/10/07 00:45:40;;;;;;;9.03;3.97;;;16.60;62.90;;;;;;5024393;28;20209;-31
2023/10/07 00:48:11;;;;;;;9.53;4.30;;;16.60;63.00;;;;;;5025146;28;20205;-31
2023/10/07 00:50:42;;;;;;;9.73;4.40;;;16.70;63.10;;;;;;5025816;28;20606;-31
2023/10/07 00:53:12;;;;;;;9.10;4.20;;;16.70;63.10;;;;;;5024467;28;20219;-31
2023/10/07 00:55:41;;;;;;;9.27;4.27;;;16.70;63.10;;;;;;5030730;28;20765;-31
2023/10/07 00:58:26;;;;;;;10.25;4.90;;;16.70;63.10;;;;;;5022758;28;20288;-31
2023/10/07 01:00:56;;;;;;;7.63;4.53;;;16.70;63.10;;;;;;5011529;28;20247;-31
2023/10/07 01:03:39;;;;;;;12.77;4.40;;;16.80;63.20;;;;;;5028239;28;20233;-31
2023/10/07 01:06:10;;;;;;;10.55;4.82;;;16.80;63.20;;;;;;5025950;28;20696;-30
2023/10/07 01:08:44;;;;;;;9.18;4.10;;;16.80;63.20;;;;;;5038483;28;20262;-31
2023/10/07 01:11:21;;;;;;;11.30;3.90;;;16.80;63.30;;;;;;5039544;28;20200;-37
2023/10/07 01:13:50;;;;;;;10.87;4.50;;;16.80;63.30;;;;;;5035411;28;20315;-31
2023/10/07 01:21:55;;;;;;;11.15;4.70;;;16.90;63.40;;;;;;5032966;28;20208;-31
2023/10/07 01:24:44;;;;;;;10.10;4.50;;;16.90;63.40;;;;;;5038208;28;20471;-31
2023/10/07 01:27:19;;;;;;;11.13;4.60;;;16.90;63.40;;;;;;5026497;28;20635;-31
2023/10/07 01:30:15;;;;;;;12.60;4.30;;;16.90;63.40;;;;;;5026432;28;20224;-30
2023/10/07 01:32:48;;;;;;;9.48;4.60;;;17.00;63.60;;;;;;5025823;28;20294;-31
2023/10/07 01:35:25;;;;;;;9.07;4.28;;;17.00;63.60;;;;;;5025740;28;20945;-31
2023/10/07 01:38:08;;;;;;;12.55;5.13;;;17.00;63.60;;;;;;5043008;28;20763;-31
2023/10/07 01:41:06;;;;;;;9.25;3.90;;;17.00;63.60;;;;;;5031165;28;20759;-31
2023/10/07 01:43:31;;;;;;;10.77;4.73;;;17.00;63.70;;;;;;5026941;28;20633;-31
2023/10/07 01:46:10;;;;;;;11.77;5.35;;;17.00;63.60;;;;;;5024826;28;20740;-31
2023/10/07 01:48:54;;;;;;;9.38;4.38;;;17.00;63.70;;;;;;5024529;28;20250;-31
2023/10/07 01:51:27;;;;;;;9.88;5.40;;;17.00;64.50;;;;;;5021608;28;20302;-31
2023/10/07 01:53:58;;;;;;;11.50;4.33;;;17.00;63.70;;;;;;5006389;28;20300;-31
2023/10/07 01:56:29;;;;;;;9.02;4.95;;;17.00;63.80;;;;;;5023736;28;20328;-31
2023/10/07 01:59:09;;;;;;;13.88;4.80;;;17.00;63.80;;;;;;5022796;28;20189;-32
2023/10/07 02:01:41;;;;;;;11.77;4.60;;;17.10;64.00;;;;;;5021611;28;20263;-31
2023/10/07 02:04:20;;;;;;;10.03;4.63;;;17.10;63.80;;;;;;5024337;28;20216;-31
2023/10/07 02:06:54;;;;;;;13.20;5.30;;;17.10;63.90;;;;;;5037321;28;20679;-31
2023/10/07 02:09:29;;;;;;;10.90;5.18;;;17.10;64.00;;;;;;5036951;28;20271;-28
2023/10/07 02:12:11;;;;;;;10.68;4.63;;;17.10;64.00;;;;;;5024281;28;20702;-28
2023/10/07 02:14:39;;;;;;;13.27;5.13;;;17.10;64.00;;;;;;5034403;28;20452;-28
2023/10/07 02:17:09;;;;;;;13.43;5.80;;;17.10;64.10;;;;;;5024644;28;20205;-28
2023/10/07 02:19:41;;;;;;;13.23;5.10;;;17.10;64.10;;;;;;5026317;28;20539;-28
2023/10/07 02:22:21;;;;;;;12.52;5.25;;;17.10;64.00;;;;;;5037301;28;20205;-28
2023/10/07 02:25:00;;;;;;;11.55;5.05;;;17.20;64.20;;;;;;5030885;28;20972;-28
2023/10/07 02:27:38;;;;;;;9.20;4.53;;;17.20;64.30;;;;;;5012480;28;20678;-28
2023/10/07 02:30:06;;;;;;;16.10;5.25;;;17.20;64.20;;;;;;5038303;28;20208;-28
2023/10/07 02:32:35;;;;;;;11.13;4.73;;;17.20;64.20;;;;;;5030852;28;20197;-28
2023/10/07 02:35:08;;;;;;;9.40;4.70;;;17.20;64.20;;;;;;5022704;28;20486;-28
2023/10/07 02:37:38;;;;;;;10.70;4.55;;;17.20;64.30;;;;;;5031933;28;20753;-28
2023/10/07 02:40:35;;;;;;;9.77;4.97;;;17.20;64.30;;;;;;5036557;28;20228;-29
2023/10/07 02:43:09;;;;;;;10.68;5.10;;;17.30;64.40;;;;;;5037934;28;20564;-28
2023/10/07 02:45:40;;;;;;;10.38;5.32;;;17.30;64.40;;;;;;5049974;28;20228;-28
2023/10/07 02:48:11;;;;;;;10.90;5.25;;;17.30;64.60;;;;;;5026165;28;20207;-28
2023/10/07 02:50:42;;;;;;;9.98;5.20;;;17.30;64.50;;;;;;5032791;28;20314;-28
2023/10/07 02:53:16;;;;;;;13.57;5.30;;;17.30;64.50;;;;;;5041204;28;20203;-28
2023/10/07 02:58:48;;;;;;;11.20;5.18;;;17.30;64.50;;;;;;5045755;28;20708;-28
2023/10/07 03:01:26;;;;;;;9.43;4.90;;;17.40;64.80;;;;;;5035351;28;20726;-28
2023/10/07 03:03:54;;;;;;;9.48;5.05;;;17.40;64.70;;;;;;5026489;28;20295;-28
2023/10/07 03:06:30;;;;;;;12.02;4.78;;;17.40;64.70;;;;;;5026251;28;20307;-29
2023/10/07 03:09:01;;;;;;;12.65;4.93;;;17.40;64.80;;;;;;5029436;28;20208;-28
2023/10/07 03:11:40;;;;;;;10.95;4.80;;;17.40;64.70;;;;;;5033650;28;20663;-28
2023/10/07 03:14:13;;;;;;;15.05;5.00;;;17.50;64.80;;;;;;5047972;28;20216;-28
2023/10/07 03:16:46;;;;;;;11.73;5.20;;;17.40;64.70;;;;;;5038250;28;20777;-28
2023/10/07 03:19:22;;;;;;;13.32;4.90;;;17.40;64.70;;;;;;5026113;28;20209;-28
2023/10/07 03:21:55;;;;;;;10.52;5.13;;;17.50;65.00;;;;;;5037200;28;20218;-28
2023/10/07 03:24:41;;;;;;;9.18;5.10;;;17.50;64.90;;;;;;5045120;28;20226;-28
2023/10/07 03:27:11;;;;;;;11.88;5.05;;;17.50;64.90;;;;;;5041115;28;20703;-28
2023/10/07 03:29:45;;;;;;;8.32;4.85;;;17.50;64.90;;;;;;5030321;28;20203;-28
2023/10/07 03:32:15;;;;;;;13.20;5.18;;;17.50;64.90;;;;;;5035300;28;20216;-28
2023/10/07 03:34:45;;;;;;;14.93;5.30;;;17.50;64.90;;;;;;5044716;28;20188;-28
2023/10/07 03:37:16;;;;;;;11.45;4.63;;;17.60;65.00;;;;;;5035207;28;20220;-28
2023/10/07 03:40:35;;;;;;;13.70;5.15;;;17.60;65.80;;;;;;5026389;28;20241;-28
2023/10/07 03:42:33;;;;;;;11.27;4.80;;;17.60;65.00;;;;;;5027011;28;20717;-28
2023/10/07 03:45:02;;;;;;;12.93;5.55;;;17.60;65.00;;;;;;5025898;28;20281;-28
2023/10/07 03:47:32;;;;;;;7.60;4.47;;;17.60;65.10;;;;;;5024062;28;20726;-28
2023/10/07 03:50:24;;;;;;;10.65;5.25;;;17.60;65.10;;;;;;5034546;28;20551;-28
2023/10/07 03:52:54;;;;;;;11.85;5.38;;;17.60;65.10;;;;;;5021463;28;20205;-28
2023/10/07 03:55:28;;;;;;;12.52;5.25;;;17.60;65.00;;;;;;5023676;28;20276;-28
2023/10/07 03:57:56;;;;;;;8.27;4.78;;;17.70;65.20;;;;;;5025638;28;20200;-28
2023/10/07 04:00:28;;;;;;;14.02;5.25;;;17.70;65.20;;;;;;5040227;28;20707;-28
2023/10/07 04:03:07;;;;;;;10.43;4.90;;;17.60;65.20;;;;;;5032207;28;20217;-28
2023/10/07 04:05:45;;;;;;;11.93;4.82;;;17.70;65.10;;;;;;5042894;28;20485;-28
2023/10/07 04:08:18;;;;;;;13.15;5.47;;;17.70;65.20;;;;;;5040434;28;20200;-28
2023/10/07 04:10:47;;;;;;;10.98;5.35;;;17.70;65.30;;;;;;5038677;28;20266;-28
2023/10/07 04:13:21;;;;;;;10.90;4.90;;;17.70;65.30;;;;;;5020600;28;20250;-28
2023/10/07 04:15:51;;;;;;;12.45;4.80;;;17.70;65.30;;;;;;5035809;28;20220;-28
2023/10/07 04:18:34;;;;;;;9.27;4.70;;;17.70;65.30;;;;;;5024935;28;20204;-28
2023/10/07 04:21:02;;;;;;;10.35;5.10;;;17.70;65.30;;;;;;5025547;28;20610;-29
2023/10/07 04:23:32;;;;;;;9.35;5.30;;;17.70;65.30;;;;;;5024744;28;20768;-28
2023/10/07 04:26:12;;;;;;;9.75;4.85;;;17.70;65.30;;;;;;5025445;28;20212;-28
2023/10/07 04:28:42;;;;;;;10.38;4.97;;;17.70;65.40;;;;;;5026960;28;20193;-27
2023/10/07 04:31:15;;;;;;;9.43;4.15;;;17.70;65.50;;;;;;5028043;28;20414;-29
2023/10/07 04:33:48;;;;;;;11.45;5.30;;;17.70;65.30;;;;;;5019399;28;20760;-28
2023/10/07 04:36:31;;;;;;;12.03;4.83;;;17.70;65.40;;;;;;5038370;28;20221;-28
2023/10/07 04:39:15;;;;;;;12.75;5.30;;;17.70;65.40;;;;;;5039215;28;20496;-28
2023/10/07 04:41:56;;;;;;;13.13;6.15;;;17.70;65.50;;;;;;5015631;28;20236;-28
2023/10/07 04:45:16;;;;;;;10.25;5.05;;;17.70;65.50;;;;;;5025903;28;20224;-28
2023/10/07 04:47:29;;;;;;;9.45;5.15;;;17.70;65.50;;;;;;5026039;28;20856;-28
2023/10/07 04:50:05;;;;;;;11.75;5.50;;;17.70;65.50;;;;;;5031067;28;20226;-28
2023/10/07 04:52:50;;;;;;;8.60;4.88;;;17.70;65.50;;;;;;5032365;28;20215;-28
2023/10/07 04:55:26;;;;;;;9.85;4.45;;;17.70;65.60;;;;;;5032178;28;20221;-28
2023/10/07 05:01:04;;;;;;;11.65;5.55;;;17.70;65.50;;;;;;5025564;28;20614;-28
2023/10/07 05:03:14;;;;;;;13.68;5.68;;;17.70;65.60;;;;;;5042691;28;20198;-28
2023/10/07 05:05:45;;;;;;;10.57;5.27;;;17.70;65.60;;;;;;5034149;28;20216;-28
2023/10/07 05:08:22;;;;;;;10.13;5.65;;;17.70;65.60;;;;;;5036922;28;20196;-27
2023/10/07 05:11:04;;;;;;;12.65;5.40;;;17.70;65.60;;;;;;5038354;28;20709;-28
2023/10/07 05:13:42;;;;;;;12.73;5.27;;;17.70;65.70;;;;;;5024760;28;20207;-28
2023/10/07 05:16:15;;;;;;;10.70;5.63;;;17.70;65.70;;;;;;5024041;28;20231;-28
2023/10/07 05:18:42;;;;;;;12.93;5.50;;;17.70;65.70;;;;;;5032595;28;20201;-28
2023/10/07 05:21:15;;;;;;;10.13;5.13;;;17.70;65.70;;;;;;5036187;28;20220;-28
2023/10/07 05:23:42;;;;;;;7.40;4.67;;;17.70;65.70;;;;;;5034448;28;21004;-28
2023/10/07 05:26:10;;;;;;;12.43;5.93;;;17.70;65.70;;;;;;5031434;28;20230;-28
2023/10/07 05:28:39;;;;;;;8.85;5.38;;;17.70;65.80;;;;;;5024261;28;20205;-28
2023/10/07 05:31:09;;;;;;;9.70;5.20;;;17.70;65.70;;;;;;5024946;28;20209;-28
2023/10/07 05:33:38;;;;;;;7.32;4.47;;;17.70;65.80;;;;;;5036949;28;20692;-28
2023/10/07 05:36:13;;;;;;;13.38;5.18;;;17.70;65.80;;;;;;5031492;28;20619;-28
2023/10/07 05:38:45;;;;;;;10.70;5.10;;;17.70;65.80;;;;;;5027932;28;20286;-28
2023/10/07 05:41:14;;;;;;;7.75;4.60;;;17.70;65.80;;;;;;5039417;28;20308;-28
2023/10/07 05:43:43;;;;;;;9.63;5.10;;;17.60;65.80;;;;;;5034450;28;20685;-28
2023/10/07 05:46:17;;;;;;;9.55;4.57;;;17.70;65.90;;;;;;5031781;28;20212;-28
2023/10/07 05:48:46;;;;;;;14.70;5.83;;;17.70;65.90;;;;;;5025332;28;20203;-28
2023/10/07 05:51:13;;;;;;;13.82;5.63;;;17.70;65.90;;;;;;5035270;28;20216;-28
2023/10/07 05:53:45;;;;;;;12.15;5.18;;;17.60;65.80;;;;;;5034969;28;20312;-28
2023/10/07 05:56:12;;;;;;;14.05;5.90;;;17.60;65.80;;;;;;5041355;28;20594;-28
2023/10/07 05:58:44;;;;;;;11.87;5.83;;;17.60;65.90;;;;;;5025538;28;20228;-28
2023/10/07 06:01:14;;;;;;;10.20;4.82;;;17.60;65.90;;;;;;5030880;28;20265;-29
2023/10/07 06:03:46;;;;;;;8.05;5.18;;;17.60;65.90;;;;;;5036022;28;20668;-28
2023/10/07 06:06:20;;;;;;;10.77;5.67;;;17.60;65.90;;;;;;5040555;28;20230;-28
2023/10/07 06:08:48;;;;;;;13.27;5.22;;;17.60;66.00;;;;;;5034293;28;20679;-28
2023/10/07 06:11:16;;;;;;;14.30;5.55;;;17.60;66.00;;;;;;5026220;28;20242;-28
2023/10/07 06:13:47;;;;;;;12.50;5.47;;;17.60;66.00;;;;;;5026746;28;20322;-28
2023/10/07 06:16:15;;;;;;;10.63;5.37;;;17.60;66.90;;;;;;5037005;28;20694;-27
2023/10/07 06:18:44;;;;;;;11.63;5.20;;;17.60;66.10;;;;;;5037624;28;21135;-28
2023/10/07 06:21:19;;;;;;;11.90;6.30;;;17.60;66.10;;;;;;5040721;28;20208;-28
2023/10/07 06:23:53;;;;;;;12.18;5.57;;;17.60;66.30;;;;;;5042603;28;20694;-28
2023/10/07 06:26:24;;;;;;;11.97;5.40;;;17.60;66.10;;;;;;5043843;28;20234;-28
2023/10/07 06:28:56;;;;;;;12.30;5.30;;;17.60;66.10;;;;;;5034487;28;20196;-28
2023/10/07 06:31:31;;;;;;;11.50;5.95;;;17.70;66.20;;;;;;5035326;28;20209;-28
2023/10/07 06:34:12;;;;;;;18.17;5.67;;;17.70;66.20;;;;;;5031267;28;20212;-28
2023/10/07 06:36:42;;;;;;;16.52;5.10;;;17.70;66.30;;;;;;5025288;28;20224;-28
2023/10/07 06:39:10;;;;;;;11.40;5.05;;;17.70;66.30;;;;;;5027244;28;20225;-28
2023/10/07 06:41:42;;;;;;;15.90;6.28;;;17.70;66.30;;;;;;5025109;28;20263;-28
2023/10/07 06:44:10;;;;;;;11.27;5.60;;;17.70;66.30;;;;;;5026296;28;20418;-28
2023/10/07 06:46:41;;;;;;;9.73;5.43;;;17.70;66.30;;;;;;5029094;28;20212;-28
2023/10/07 06:49:17;;;;;;;9.90;5.47;;;17.70;66.40;;;;;;5043310;28;20309;-28
2023/10/07 06:51:52;;;;;;;13.97;6.07;;;17.70;66.30;;;;;;5029722;28;20282;-28
2023/10/07 06:54:32;;;;;;;9.88;5.55;;;17.70;66.40;;;;;;5041832;28;20308;-28
2023/10/07 06:57:01;;;;;;;12.17;5.93;;;17.70;66.50;;;;;;5026619;28;20311;-28
2023/10/07 06:59:31;;;;;;;10.77;5.18;;;17.80;66.50;;;;;;5027233;28;20224;-28
2023/10/07 07:02:06;;;;;;;13.83;5.63;;;17.80;66.50;;;;;;5034729;28;20787;-28
2023/10/07 07:04:35;;;;;;;11.20;5.60;;;17.80;66.50;;;;;;5045573;28;20204;-28
2023/10/07 07:07:16;;;;;;;9.52;5.32;;;17.80;66.60;;;;;;5040039;28;20220;-28
2023/10/07 07:12:26;;;;;;;12.83;5.23;;;17.80;66.50;;;;;;5028440;28;20215;-28
2023/10/07 07:15:05;;;;;;;11.93;4.95;;;17.90;66.60;;;;;;5033442;28;20699;-28
2023/10/07 07:17:37;;;;;;;10.98;5.20;;;17.90;66.70;;;;;;5033806;28;20585;-28
2023/10/07 07:22:46;;;;;;;9.95;5.72;;;17.90;66.60;;;;;;5034851;28;20283;-28
2023/10/07 07:25:29;;;;;;;10.85;5.53;;;17.90;66.70;;;;;;5037127;28;20694;-28
2023/10/07 07:28:00;;;;;;;12.73;5.32;;;17.90;66.70;;;;;;5027688;28;20624;-28
2023/10/07 07:30:31;;;;;;;14.35;4.82;;;18.00;66.70;;;;;;5024629;28;20654;-28
2023/10/07 07:33:08;;;;;;;10.20;5.20;;;18.00;66.60;;;;;;5017146;28;20209;-27
2023/10/07 07:35:43;;;;;;;18.77;6.15;;;18.00;66.70;;;;;;5037057;28;20225;-28
2023/10/07 07:38:30;;;;;;;11.20;5.53;;;18.00;66.60;;;;;;5035221;28;20281;-28
2023/10/07 07:41:04;;;;;;;16.33;5.93;;;18.00;66.70;;;;;;5042108;28;20218;-28
2023/10/07 07:43:36;;;;;;;12.35;5.57;;;18.00;66.80;;;;;;5033725;28;20818;-28
2023/10/07 07:46:18;;;;;;;14.10;5.57;;;18.10;66.80;;;;;;5031468;28;20200;-28
2023/10/07 07:48:48;;;;;;;13.32;5.82;;;18.10;66.80;;;;;;5038306;28;20311;-28
2023/10/07 07:51:18;;;;;;;11.63;5.63;;;18.10;67.00;;;;;;5035533;28;20216;-28
2023/10/07 07:53:48;;;;;;;12.55;5.85;;;18.10;66.80;;;;;;5028082;28;20212;-28
2023/10/07 07:56:17;;;;;;;10.68;5.53;;;18.10;66.90;;;;;;5035911;28;20996;-28
2023/10/07 07:58:48;;;;;;;13.07;5.10;;;18.10;66.80;;;;;;5028607;28;20200;-28
2023/10/07 08:01:22;;;;;;;12.23;5.00;;;18.10;66.80;;;;;;5037261;28;20313;-30
2023/10/07 08:03:50;;;;;;;13.85;5.85;;;18.20;67.10;;;;;;5021196;28;20698;-30
2023/10/07 08:06:21;;;;;;;10.88;5.32;;;18.20;66.90;;;;;;5033140;28;20197;-29
2023/10/07 08:08:54;;;;;;;12.38;5.90;;;18.20;67.00;;;;;;5035094;28;20323;-33
2023/10/07 08:11:24;;;;;;;13.95;5.18;;;18.30;67.00;;;;;;5031188;28;20201;-33
2023/10/07 08:13:54;;;;;;;10.82;5.22;;;18.30;66.90;;;;;;5026255;28;20315;-33
2023/10/07 08:16:25;;;;;;;10.57;5.70;;;18.30;67.00;;;;;;5028943;28;20220;-33
2023/10/07 08:18:56;;;;;;;8.57;5.22;;;18.30;67.10;;;;;;5025608;28;20205;-33
2023/10/07 08:21:29;;;;;;;13.85;5.28;;;18.30;67.10;;;;;;5025776;28;20288;-33
2023/10/07 08:24:01;;;;;;;9.43;5.25;;;18.40;67.10;;;;;;5043888;28;20610;-33
2023/10/07 08:26:34;;;;;;;13.50;5.28;;;18.40;67.00;;;;;;5043180;28;20315;-32
2023/10/07 08:29:04;;;;;;;11.60;5.22;;;18.40;67.20;;;;;;5026954;28;20282;-33
2023/10/07 08:31:37;;;;;;;14.60;5.15;;;18.40;67.10;;;;;;5037751;28;20211;-33
2023/10/07 08:36:47;;;;;;;14.38;4.72;;;18.50;67.10;;;;;;5043420;28;20326;-32
2023/10/07 08:39:18;;;;;;;15.82;5.47;;;18.50;67.40;;;;;;5042788;28;20207;-32
2023/10/07 08:41:52;;;;;;;14.02;5.40;;;18.60;67.20;;;;;;5040628;28;20238;-33
2023/10/07 08:44:29;;;;;;;24.92;6.20;;;18.60;67.20;;;;;;5039096;28;20215;-32
2023/10/07 08:47:04;;;;;;;11.50;5.00;;;18.60;67.20;;;;;;5041344;28;20204;-32
2023/10/07 08:49:35;;;;;;;15.80;5.50;;;18.60;67.20;;;;;;5043848;28;20788;-32
2023/10/07 08:52:09;;;;;;;10.60;4.95;;;18.70;67.20;;;;;;5036807;28;20277;-32
2023/10/07 08:54:44;;;;;;;9.77;4.78;;;18.70;67.30;;;;;;5040765;28;20236;-32
2023/10/07 08:57:19;;;;;;;14.05;4.88;;;18.70;67.30;;;;;;5036724;28;20770;-32
2023/10/07 08:59:59;;;;;;;15.88;5.63;;;18.80;67.70;;;;;;5041889;28;20282;-32
2023/10/07 09:02:30;;;;;;;12.05;5.10;;;18.80;67.30;;;;;;5035962;28;20582;-32
2023/10/07 09:05:09;;;;;;;13.98;4.75;;;18.80;67.50;;;;;;5038672;28;20244;-33
2023/10/07 09:07:37;;;;;;;8.75;5.03;;;18.90;67.40;;;;;;5024648;28;20468;-33
2023/10/07 09:10:14;;;;;;;11.52;4.47;;;18.90;67.40;;;;;;5037220;28;20231;-32
2023/10/07 09:12:46;;;;;;;9.13;4.47;;;18.90;67.40;;;;;;5023937;28;20493;-32
2023/10/07 09:15:20;;;;;;;10.63;4.65;;;19.00;67.50;;;;;;5027918;28;20208;-33
2023/10/07 09:17:48;;;;;;;12.18;4.32;;;19.00;67.40;;;;;;5036239;28;20216;-33
2023/10/07 09:20:29;;;;;;;12.18;4.80;;;19.10;67.50;;;;;;5036302;28;20639;-33
2023/10/07 09:23:07;;;;;;;11.10;4.90;;;19.10;67.50;;;;;;5042275;28;20661;-32
2023/10/07 09:25:34;;;;;;;12.50;4.22;;;19.10;67.50;;;;;;5042314;28;20196;-33
2023/10/07 09:28:07;;;;;;;11.15;4.65;;;19.20;67.40;;;;;;5023722;28;20240;-33
2023/10/07 09:33:13;;;;;;;11.93;4.22;;;19.20;67.50;;;;;;5036529;28;20216;-32
2023/10/07 09:35:43;;;;;;;12.70;4.57;;;19.30;67.50;;;;;;5036644;28;20667;-33
2023/10/07 09:38:27;;;;;;;9.60;4.30;;;19.30;67.60;;;;;;5023692;28;20327;-33
2023/10/07 09:43:29;;;;;;;9.27;4.22;;;19.40;67.40;;;;;;5034890;28;20213;-33
2023/10/07 09:45:58;;;;;;;16.67;4.45;;;19.40;67.40;;;;;;5028230;28;20313;-32
2023/10/07 09:48:33;;;;;;;7.28;3.70;;;19.50;67.50;;;;;;5023720;28;20315;-33
2023/10/07 09:51:14;;;;;;;8.52;4.07;;;19.50;67.50;;;;;;5033711;28;20208;-32
2023/10/07 09:54:02;;;;;;;9.32;4.05;;;19.50;67.50;;;;;;5024627;28;20196;-33
2023/10/07 09:56:58;;;;;;;6.43;3.80;;;19.60;67.60;;;;;;5022561;28;20251;-33
2023/10/07 09:59:48;;;;;;;6.95;3.55;;;19.60;67.50;;;;;;5023703;28;20228;-33
2023/10/07 10:02:43;;;;;;;11.25;3.72;;;19.70;67.60;;;;;;5029159;28;20584;-33
2023/10/07 10:05:35;;;;;;;10.85;3.60;;;19.70;67.40;;;;;;5028631;28;20308;-33
2023/10/07 10:08:30;;;;;;;10.20;4.32;;;19.70;67.30;;;;;;5025174;28;20227;-29
2023/10/07 10:11:08;;;;;;;8.57;3.72;;;19.80;67.30;;;;;;5031431;28;20710;-29
2023/10/07 10:16:12;;;;;;;5.55;3.00;;;19.80;67.20;;;;;;5033798;28;20230;-29
2023/10/07 10:18:45;;;;;;;9.10;3.70;;;19.90;67.30;;;;;;5032629;28;20617;-35
2023/10/07 10:21:13;;;;;;;8.77;3.50;;;19.90;67.20;;;;;;5033258;28;20722;-29
2023/10/07 10:23:44;;;;;;;8.13;3.47;;;20.00;67.30;;;;;;5028725;28;20304;-30
2023/10/07 10:26:26;;;;;;;8.73;3.47;;;20.00;67.20;;;;;;5036281;28;20209;-29
2023/10/07 10:29:03;;;;;;;11.60;3.17;;;20.00;67.20;;;;;;5038231;28;20204;-29
2023/10/07 10:31:36;;;;;;;7.18;3.20;;;20.10;67.20;;;;;;5036982;28;20224;-29
2023/10/07 10:34:06;;;;;;;8.18;3.20;;;20.10;67.00;;;;;;5030998;28;20200;-29
2023/10/07 10:36:43;;;;;;;7.78;3.20;;;20.10;66.90;;;;;;5041287;28;20213;-29
2023/10/07 10:39:25;;;;;;;11.25;3.63;;;20.10;67.00;;;;;;5034769;28;20204;-29
2023/10/07 10:42:09;;;;;;;6.95;3.53;;;20.20;67.00;;;;;;5025478;28;20213;-29
2023/10/07 10:44:42;;;;;;;11.50;3.55;;;20.20;67.10;;;;;;5023403;28;20205;-29
2023/10/07 10:47:15;;;;;;;6.82;3.42;;;20.20;67.00;;;;;;5037895;28;20627;-29
2023/10/07 10:49:45;;;;;;;7.45;3.30;;;20.30;67.00;;;;;;5047107;28;20199;-29
2023/10/07 10:52:15;;;;;;;7.93;4.10;;;20.30;67.00;;;;;;5023009;28;20899;-30
2023/10/07 10:54:52;;;;;;;7.30;3.63;;;20.30;67.00;;;;;;5031741;28;20209;-29
2023/10/07 10:57:24;;;;;;;8.27;3.72;;;20.40;67.10;;;;;;5029553;28;20224;-29
2023/10/07 10:59:51;;;;;;;9.30;3.95;;;20.40;67.10;;;;;;5035690;28;20311;-29
2023/10/07 11:02:22;;;;;;;9.75;4.18;;;20.40;67.00;;;;;;5033436;28;20951;-28
2023/10/07 11:04:55;;;;;;;10.43;4.55;;;20.50;67.00;;;;;;5029845;28;20842;-28
2023/10/07 11:07:25;;;;;;;6.82;3.67;;;20.50;67.00;;;;;;5031126;28;21223;-28
2023/10/07 11:09:54;;;;;;;10.38;4.78;;;20.60;66.90;;;;;;5034283;28;20267;-28
2023/10/07 11:12:29;;;;;;;10.07;4.00;;;20.60;66.70;;;;;;5032192;28;20218;-28
2023/10/07 11:15:12;;;;;;;6.88;4.15;;;20.70;66.80;;;;;;5032375;28;20215;-28
2023/10/07 11:17:46;;;;;;;10.10;4.00;;;20.70;66.50;;;;;;5025502;28;20232;-28
2023/10/07 11:20:19;;;;;;;9.05;4.15;;;20.70;66.50;;;;;;5028844;28;20200;-30
2023/10/07 11:22:48;;;;;;;7.85;3.33;;;20.70;66.60;;;;;;5038523;28;20193;-28
2023/10/07 11:25:18;;;;;;;10.85;4.10;;;20.80;66.60;;;;;;5026509;28;20212;-28
2023/10/07 11:27:51;;;;;;;7.50;4.07;;;20.80;66.60;;;;;;5039105;28;20208;-28
2023/10/07 11:30:21;;;;;;;7.32;3.63;;;20.90;66.50;;;;;;5028562;28;20327;-28
2023/10/07 11:32:48;;;;;;;7.13;3.80;;;20.90;66.60;;;;;;5039548;28;20686;-28
2023/10/07 11:35:29;;;;;;;7.10;4.15;;;20.90;66.30;;;;;;5030842;28;20227;-28
2023/10/07 11:37:59;;;;;;;7.05;3.78;;;21.00;66.40;;;;;;5025356;28;20646;-28
2023/10/07 11:40:32;;;;;;;10.73;3.95;;;21.00;66.30;;;;;;5035361;28;20670;-28
2023/10/07 11:43:04;;;;;;;6.30;4.05;;;21.00;66.30;;;;;;5015824;28;20255;-28
2023/10/07 11:45:32;;;;;;;11.73;4.25;;;21.10;66.20;;;;;;5030543;28;20201;-28
2023/10/07 11:47:59;;;;;;;8.30;4.22;;;21.10;66.30;;;;;;5027539;28;20209;-28
2023/10/07 11:50:37;;;;;;;6.65;4.10;;;21.10;66.60;;;;;;5020000;28;20223;-28
2023/10/07 11:53:06;;;;;;;8.88;4.35;;;21.20;66.00;;;;;;5021140;28;20301;-28
2023/10/07 11:55:36;;;;;;;6.93;3.90;;;21.20;65.70;;;;;;5035482;28;20627;-28
2023/10/07 11:58:07;;;;;;;9.93;4.20;;;21.30;65.70;;;;;;5028921;28;20325;-28
2023/10/07 12:00:35;;;;;;;8.27;3.92;;;21.30;65.70;;;;;;5030217;28;21402;-28
2023/10/07 12:03:08;;;;;;;11.48;4.57;;;21.30;65.80;;;;;;5026310;28;20694;-28
2023/10/07 12:05:42;;;;;;;9.13;4.15;;;21.40;65.90;;;;;;5026609;28;20216;-28
2023/10/07 12:08:11;;;;;;;9.68;4.03;;;21.40;65.80;;;;;;5033108;28;20201;-28
2023/10/07 12:10:49;;;;;;;12.48;4.50;;;21.40;65.70;;;;;;5036149;28;20223;-28
2023/10/07 12:13:21;;;;;;;8.05;4.30;;;21.40;65.60;;;;;;5033301;28;20211;-28
2023/10/07 12:15:54;;;;;;;8.60;4.45;;;21.50;65.50;;;;;;5041849;28;20219;-28
2023/10/07 12:18:37;;;;;;;6.18;4.30;;;21.50;65.30;;;;;;5020632;28;20730;-28
2023/10/07 12:21:12;;;;;;;9.25;4.03;;;21.50;65.70;;;;;;5025764;28;20193;-28
2023/10/07 12:23:43;;;;;;;7.20;4.40;;;21.50;65.60;;;;;;5036300;28;20254;-28
2023/10/07 12:26:18;;;;;;;9.60;4.38;;;21.60;65.70;;;;;;5035366;28;20193;-28
2023/10/07 12:28:52;;;;;;;9.60;4.18;;;21.60;65.70;;;;;;5025801;28;20208;-28
2023/10/07 12:31:23;;;;;;;7.30;3.95;;;21.60;65.50;;;;;;5028129;28;20234;-28
2023/10/07 12:33:55;;;;;;;6.95;3.97;;;21.70;64.70;;;;;;5043449;28;20335;-28
2023/10/07 12:36:22;;;;;;;10.13;3.95;;;21.70;65.50;;;;;;5033813;28;20614;-28
2023/10/07 12:38:52;;;;;;;7.00;3.75;;;21.70;65.50;;;;;;5036126;28;20970;-28
2023/10/07 12:41:19;;;;;;;14.70;4.47;;;21.80;65.70;;;;;;5022698;28;20200;-29
2023/10/07 12:43:47;;;;;;;10.18;4.03;;;21.80;65.30;;;;;;5029725;28;20342;-29
2023/10/07 12:46:21;;;;;;;7.15;3.70;;;21.90;65.20;;;;;;5034131;28;20204;-29
2023/10/07 12:48:49;;;;;;;8.75;4.55;;;21.90;65.40;;;;;;5026554;28;20201;-30
2023/10/07 12:51:18;;;;;;;6.95;3.95;;;22.00;64.80;;;;;;5044078;28;20293;-30
2023/10/07 12:53:45;;;;;;;6.88;3.72;;;22.00;65.20;;;;;;5024599;28;20225;-29
2023/10/07 12:56:22;;;;;;;8.10;4.07;;;22.00;65.00;;;;;;5011926;28;20209;-29
2023/10/07 12:58:49;;;;;;;6.38;3.97;;;22.00;65.10;;;;;;5043237;28;20219;-29
2023/10/07 13:01:19;;;;;;;6.60;3.42;;;22.10;64.60;;;;;;5036381;28;20232;-29
2023/10/07 13:03:52;;;;;;;7.85;3.47;;;22.10;64.90;;;;;;5029708;28;20622;-32
2023/10/07 13:06:19;;;;;;;8.15;4.00;;;22.20;64.50;;;;;;5042389;28;20200;-33
2023/10/07 13:08:53;;;;;;;11.48;3.75;;;22.20;63.70;;;;;;5028484;28;20232;-33
2023/10/07 13:11:26;;;;;;;9.30;3.70;;;22.30;64.90;;;;;;5031472;28;20219;-33
2023/10/07 13:14:00;;;;;;;9.45;3.60;;;22.30;64.80;;;;;;5039083;28;20209;-33
2023/10/07 13:16:37;;;;;;;6.03;3.65;;;22.30;64.80;;;;;;5041627;28;20678;-33
2023/10/07 13:19:06;;;;;;;9.07;3.67;;;22.30;64.90;;;;;;5028511;28;20664;-33
2023/10/07 13:21:34;;;;;;;8.50;3.75;;;22.40;65.00;;;;;;5029272;28;20295;-34
2023/10/07 13:24:07;;;;;;;8.18;3.60;;;22.40;64.90;;;;;;5026185;28;20211;-33
2023/10/07 13:26:37;;;;;;;7.25;3.22;;;22.40;64.70;;;;;;5026225;28;20208;-33
2023/10/07 13:29:09;;;;;;;8.48;3.55;;;22.40;64.80;;;;;;5039960;28;20224;-33
2023/10/07 13:31:40;;;;;;;8.25;3.55;;;22.50;64.20;;;;;;5027502;28;20239;-33
2023/10/07 13:34:07;;;;;;;5.05;3.15;;;22.50;64.60;;;;;;5024804;28;20755;-33
2023/10/07 13:36:37;;;;;;;6.40;3.78;;;22.50;63.80;;;;;;5029011;28;20228;-33
2023/10/07 13:39:15;;;;;;;8.95;3.80;;;22.60;64.30;;;;;;5030944;28;20243;-33
2023/10/07 13:41:47;;;;;;;6.55;3.50;;;22.60;64.30;;;;;;5009475;28;20209;-33